UAL154 PTPN-PTKK
Flight info
| Callsign | UAL154 |
|---|---|
| Flight time | 1h 3m |
| Altitude | 34000 |
| Route | BIRUQ R584 MICNO |
| Aircraft | B38M/M-SDE1FGHILORVWXY/HB1 |
Departure
| Time | 2026-04-27 13:24 |
|---|---|
| Airport | Pohnpei International Airport (PTPN) |
Arrival
| Time | 2026-04-27 14:27 |
|---|---|
| Airport | Chuuk International Airport (PTKK) |
| Time | Latitude | Longitude | Altitude | Speed | Heading |
|---|---|---|---|---|---|
| 2026-04-27 12:37 | 6.98187 | 158.20395 | 20 ft | 0 kts | 178° |
| 2026-04-27 13:16 | 6.98196 | 158.20395 | 20 ft | 4 kts | 177° |
| 2026-04-27 13:16 | 6.98219 | 158.20394 | 20 ft | 2 kts | 178° |
| 2026-04-27 13:17 | 6.98245 | 158.20393 | 20 ft | 4 kts | 178° |
| 2026-04-27 13:17 | 6.98254 | 158.20393 | 20 ft | 0 kts | 178° |
| 2026-04-27 13:20 | 6.98251 | 158.20393 | 20 ft | 1 kts | 187° |
| 2026-04-27 13:20 | 6.98244 | 158.20385 | 21 ft | 2 kts | 243° |
| 2026-04-27 13:20 | 6.98251 | 158.20372 | 20 ft | 3 kts | 321° |
| 2026-04-27 13:21 | 6.98277 | 158.20361 | 21 ft | 5 kts | 346° |
| 2026-04-27 13:21 | 6.98322 | 158.20358 | 20 ft | 8 kts | 359° |
| 2026-04-27 13:21 | 6.98384 | 158.20358 | 21 ft | 10 kts | 0° |
| 2026-04-27 13:21 | 6.98459 | 158.20358 | 20 ft | 12 kts | 0° |
| 2026-04-27 13:22 | 6.98514 | 158.20305 | 19 ft | 14 kts | 271° |
| 2026-04-27 13:22 | 6.98510 | 158.20200 | 19 ft | 16 kts | 254° |
| 2026-04-27 13:22 | 6.98476 | 158.20108 | 20 ft | 10 kts | 286° |
| 2026-04-27 13:22 | 6.98490 | 158.20093 | 21 ft | 3 kts | 338° |
| 2026-04-27 13:23 | 6.98505 | 158.20102 | 20 ft | 4 kts | 50° |
| 2026-04-27 13:23 | 6.98515 | 158.20145 | 20 ft | 0 kts | 89° |
| 2026-04-27 13:23 | 6.98515 | 158.20149 | 20 ft | 2 kts | 89° |
| 2026-04-27 13:23 | 6.98517 | 158.20336 | 19 ft | 69 kts | 89° |
| 2026-04-27 13:24 | 6.98510 | 158.21113 | 25 ft | 149 kts | 92° |
| 2026-04-27 13:24 | 6.98487 | 158.22302 | 486 ft | 183 kts | 89° |
| 2026-04-27 13:24 | 6.98824 | 158.23557 | 1405 ft | 195 kts | 54° |
| 2026-04-27 13:24 | 6.99935 | 158.24341 | 2197 ft | 210 kts | 20° |
| 2026-04-27 13:25 | 7.01479 | 158.24423 | 2894 ft | 239 kts | 348° |
| 2026-04-27 13:25 | 7.02875 | 158.23475 | 3950 ft | 254 kts | 311° |
| 2026-04-27 13:25 | 7.03513 | 158.21796 | 4989 ft | 266 kts | 274° |
| 2026-04-27 13:25 | 7.03166 | 158.19958 | 5993 ft | 273 kts | 249° |
| 2026-04-27 13:26 | 7.02594 | 158.18115 | 6883 ft | 283 kts | 265° |
| 2026-04-27 13:26 | 7.02670 | 158.16094 | 7593 ft | 297 kts | 276° |
| 2026-04-27 13:26 | 7.02772 | 158.13976 | 8484 ft | 304 kts | 273° |
| 2026-04-27 13:26 | 7.02809 | 158.11835 | 9516 ft | 309 kts | 272° |
| 2026-04-27 13:27 | 7.02817 | 158.09676 | 10315 ft | 319 kts | 271° |
| 2026-04-27 13:27 | 7.02809 | 158.07389 | 10934 ft | 333 kts | 271° |
| 2026-04-27 13:27 | 7.02788 | 158.05024 | 11717 ft | 340 kts | 271° |
| 2026-04-27 13:27 | 7.02761 | 158.02642 | 12671 ft | 341 kts | 271° |
| 2026-04-27 13:28 | 7.02731 | 158.00254 | 13566 ft | 342 kts | 271° |
| 2026-04-27 13:28 | 7.02699 | 157.97847 | 14337 ft | 345 kts | 271° |
| 2026-04-27 13:28 | 7.02666 | 157.95426 | 15118 ft | 347 kts | 271° |
| 2026-04-27 13:28 | 7.02631 | 157.92980 | 15829 ft | 351 kts | 271° |
| 2026-04-27 13:29 | 7.02597 | 157.90515 | 16571 ft | 353 kts | 271° |
| 2026-04-27 13:29 | 7.02563 | 157.88032 | 17271 ft | 357 kts | 270° |
| 2026-04-27 13:29 | 7.02529 | 157.85525 | 17949 ft | 360 kts | 271° |
| 2026-04-27 13:29 | 7.02494 | 157.82993 | 18544 ft | 363 kts | 270° |
| 2026-04-27 13:30 | 7.02457 | 157.80439 | 19091 ft | 367 kts | 271° |
| 2026-04-27 13:30 | 7.02423 | 157.77859 | 19623 ft | 370 kts | 271° |
| 2026-04-27 13:30 | 7.02385 | 157.75254 | 20156 ft | 374 kts | 271° |
| 2026-04-27 13:30 | 7.02347 | 157.72624 | 20672 ft | 378 kts | 271° |
| 2026-04-27 13:31 | 7.02349 | 157.69972 | 21180 ft | 380 kts | 277° |
| 2026-04-27 13:31 | 7.02600 | 157.67317 | 21660 ft | 383 kts | 278° |
| 2026-04-27 13:31 | 7.02843 | 157.64635 | 22136 ft | 387 kts | 277° |
| 2026-04-27 13:31 | 7.03075 | 157.61925 | 22648 ft | 390 kts | 277° |
| 2026-04-27 13:32 | 7.03299 | 157.59196 | 23146 ft | 393 kts | 277° |
| 2026-04-27 13:32 | 7.03521 | 157.56443 | 23596 ft | 396 kts | 276° |
| 2026-04-27 13:32 | 7.03744 | 157.53667 | 23979 ft | 399 kts | 276° |
| 2026-04-27 13:32 | 7.03968 | 157.50873 | 24378 ft | 402 kts | 277° |
| 2026-04-27 13:33 | 7.04194 | 157.48054 | 24744 ft | 406 kts | 276° |
| 2026-04-27 13:33 | 7.04421 | 157.45219 | 25164 ft | 407 kts | 276° |
| 2026-04-27 13:33 | 7.04650 | 157.42362 | 25569 ft | 410 kts | 276° |
| 2026-04-27 13:33 | 7.04879 | 157.39496 | 25971 ft | 413 kts | 276° |
| 2026-04-27 13:34 | 7.05110 | 157.36604 | 26332 ft | 416 kts | 276° |
| 2026-04-27 13:34 | 7.05343 | 157.33692 | 26697 ft | 419 kts | 276° |
| 2026-04-27 13:34 | 7.05576 | 157.30756 | 27082 ft | 422 kts | 276° |
| 2026-04-27 13:34 | 7.05811 | 157.27802 | 27479 ft | 424 kts | 275° |
| 2026-04-27 13:35 | 7.06048 | 157.24839 | 27883 ft | 426 kts | 275° |
| 2026-04-27 13:35 | 7.06286 | 157.21848 | 28196 ft | 430 kts | 275° |
| 2026-04-27 13:35 | 7.06525 | 157.18837 | 28539 ft | 434 kts | 275° |
| 2026-04-27 13:35 | 7.06766 | 157.15801 | 28921 ft | 435 kts | 275° |
| 2026-04-27 13:36 | 7.07008 | 157.12764 | 29286 ft | 437 kts | 275° |
| 2026-04-27 13:36 | 7.07250 | 157.09706 | 29654 ft | 439 kts | 275° |
| 2026-04-27 13:36 | 7.07494 | 157.06627 | 29935 ft | 443 kts | 275° |
| 2026-04-27 13:36 | 7.07740 | 157.03524 | 30174 ft | 447 kts | 274° |
| 2026-04-27 13:37 | 7.07983 | 157.00447 | 30496 ft | 447 kts | 274° |
| 2026-04-27 13:37 | 7.08230 | 156.97319 | 30807 ft | 449 kts | 274° |
| 2026-04-27 13:37 | 7.08479 | 156.94178 | 31092 ft | 451 kts | 274° |
| 2026-04-27 13:37 | 7.08728 | 156.91016 | 31359 ft | 454 kts | 274° |
| 2026-04-27 13:38 | 7.08979 | 156.87838 | 31612 ft | 457 kts | 274° |
| 2026-04-27 13:38 | 7.09231 | 156.84641 | 31922 ft | 458 kts | 274° |
| 2026-04-27 13:38 | 7.09482 | 156.81442 | 32237 ft | 459 kts | 274° |
| 2026-04-27 13:38 | 7.09735 | 156.78225 | 32453 ft | 464 kts | 274° |
| 2026-04-27 13:39 | 7.09991 | 156.74979 | 32704 ft | 466 kts | 274° |
| 2026-04-27 13:39 | 7.10247 | 156.71715 | 32989 ft | 468 kts | 274° |
| 2026-04-27 13:39 | 7.10503 | 156.68451 | 33274 ft | 469 kts | 274° |
| 2026-04-27 13:39 | 7.10760 | 156.65173 | 33558 ft | 471 kts | 274° |
| 2026-04-27 13:40 | 7.11017 | 156.61873 | 33733 ft | 474 kts | 274° |
| 2026-04-27 13:40 | 7.11278 | 156.58551 | 33948 ft | 477 kts | 274° |
| 2026-04-27 13:40 | 7.11540 | 156.55230 | 34264 ft | 474 kts | 274° |
| 2026-04-27 13:40 | 7.11794 | 156.51924 | 34567 ft | 472 kts | 274° |
| 2026-04-27 13:41 | 7.12051 | 156.48612 | 34826 ft | 474 kts | 273° |
| 2026-04-27 13:41 | 7.12307 | 156.45306 | 35114 ft | 475 kts | 274° |
| 2026-04-27 13:41 | 7.12567 | 156.41995 | 35474 ft | 474 kts | 273° |
| 2026-04-27 13:41 | 7.12823 | 156.38695 | 35716 ft | 472 kts | 273° |
| 2026-04-27 13:42 | 7.13081 | 156.35407 | 35835 ft | 470 kts | 273° |
| 2026-04-27 13:42 | 7.13330 | 156.32125 | 35878 ft | 471 kts | 273° |
| 2026-04-27 13:42 | 7.13839 | 156.25630 | 35902 ft | 467 kts | 273° |
| 2026-04-27 13:43 | 7.14349 | 156.19090 | 35849 ft | 467 kts | 273° |
| 2026-04-27 13:43 | 7.14854 | 156.12516 | 35853 ft | 470 kts | 274° |
| 2026-04-27 13:44 | 7.15276 | 156.07045 | 35856 ft | 467 kts | 273° |
| 2026-04-27 13:44 | 7.15779 | 156.00553 | 35869 ft | 467 kts | 273° |
| 2026-04-27 13:45 | 7.16284 | 155.94027 | 35858 ft | 467 kts | 274° |
| 2026-04-27 13:45 | 7.16781 | 155.87475 | 35815 ft | 469 kts | 273° |
| 2026-04-27 13:46 | 7.17284 | 155.80919 | 35849 ft | 470 kts | 273° |
| 2026-04-27 13:46 | 7.17784 | 155.74358 | 35854 ft | 471 kts | 273° |
| 2026-04-27 13:47 | 7.18285 | 155.67794 | 35831 ft | 469 kts | 274° |
| 2026-04-27 13:47 | 7.18782 | 155.61234 | 35859 ft | 471 kts | 273° |
| 2026-04-27 13:48 | 7.19283 | 155.54666 | 35860 ft | 470 kts | 273° |
| 2026-04-27 13:48 | 7.19778 | 155.48119 | 35866 ft | 470 kts | 273° |
| 2026-04-27 13:49 | 7.20276 | 155.41554 | 35862 ft | 470 kts | 273° |
| 2026-04-27 13:49 | 7.20770 | 155.35006 | 35860 ft | 469 kts | 273° |
| 2026-04-27 13:50 | 7.21265 | 155.28444 | 35866 ft | 470 kts | 273° |
| 2026-04-27 13:50 | 7.21758 | 155.21890 | 35862 ft | 469 kts | 273° |
| 2026-04-27 13:51 | 7.22252 | 155.15328 | 35866 ft | 470 kts | 273° |
| 2026-04-27 13:51 | 7.22743 | 155.08771 | 35856 ft | 469 kts | 273° |
| 2026-04-27 13:52 | 7.23233 | 155.02216 | 35864 ft | 470 kts | 273° |
| 2026-04-27 13:52 | 7.23723 | 154.95660 | 35867 ft | 469 kts | 273° |
| 2026-04-27 13:53 | 7.24455 | 154.85836 | 35868 ft | 469 kts | 273° |
| 2026-04-27 13:54 | 7.24942 | 154.79289 | 35861 ft | 468 kts | 273° |
| 2026-04-27 13:54 | 7.25428 | 154.72736 | 35869 ft | 469 kts | 273° |
| 2026-04-27 13:55 | 7.25912 | 154.66190 | 35860 ft | 468 kts | 273° |
| 2026-04-27 13:55 | 7.26393 | 154.59686 | 35866 ft | 469 kts | 273° |
| 2026-04-27 13:56 | 7.26877 | 154.53137 | 35865 ft | 468 kts | 273° |
| 2026-04-27 13:56 | 7.27357 | 154.46597 | 35864 ft | 470 kts | 273° |
| 2026-04-27 13:57 | 7.27839 | 154.40039 | 35862 ft | 469 kts | 273° |
| 2026-04-27 13:57 | 7.28319 | 154.33494 | 35860 ft | 469 kts | 272° |
| 2026-04-27 13:58 | 7.28800 | 154.26931 | 35865 ft | 469 kts | 273° |
| 2026-04-27 13:58 | 7.29276 | 154.20402 | 35860 ft | 468 kts | 273° |
| 2026-04-27 13:59 | 7.29753 | 154.13851 | 35864 ft | 469 kts | 273° |
| 2026-04-27 13:59 | 7.30229 | 154.07313 | 35861 ft | 468 kts | 273° |
| 2026-04-27 14:00 | 7.30705 | 154.00759 | 35868 ft | 470 kts | 273° |
| 2026-04-27 14:00 | 7.31179 | 153.94215 | 35861 ft | 468 kts | 273° |
| 2026-04-27 14:01 | 7.31652 | 153.87677 | 35869 ft | 470 kts | 273° |
| 2026-04-27 14:01 | 7.32120 | 153.81171 | 35332 ft | 462 kts | 273° |
| 2026-04-27 14:01 | 7.32354 | 153.77929 | 34513 ft | 467 kts | 273° |
| 2026-04-27 14:02 | 7.32591 | 153.74653 | 33857 ft | 468 kts | 274° |
| 2026-04-27 14:02 | 7.32825 | 153.71395 | 33314 ft | 464 kts | 274° |
| 2026-04-27 14:02 | 7.33056 | 153.68170 | 32827 ft | 459 kts | 274° |
| 2026-04-27 14:02 | 7.33285 | 153.64974 | 32323 ft | 456 kts | 274° |
| 2026-04-27 14:03 | 7.33513 | 153.61802 | 31798 ft | 453 kts | 274° |
| 2026-04-27 14:03 | 7.33738 | 153.58651 | 31294 ft | 450 kts | 274° |
| 2026-04-27 14:03 | 7.33962 | 153.55520 | 30801 ft | 447 kts | 274° |
| 2026-04-27 14:03 | 7.34185 | 153.52409 | 30304 ft | 444 kts | 274° |
| 2026-04-27 14:04 | 7.34403 | 153.49357 | 29800 ft | 442 kts | 274° |
| 2026-04-27 14:04 | 7.34622 | 153.46280 | 29241 ft | 439 kts | 274° |
| 2026-04-27 14:04 | 7.34840 | 153.43225 | 28750 ft | 436 kts | 274° |
| 2026-04-27 14:04 | 7.35055 | 153.40199 | 28299 ft | 431 kts | 274° |
| 2026-04-27 14:05 | 7.35269 | 153.37199 | 27843 ft | 427 kts | 274° |
| 2026-04-27 14:05 | 7.35480 | 153.34224 | 27392 ft | 424 kts | 274° |
| 2026-04-27 14:05 | 7.35689 | 153.31276 | 26946 ft | 421 kts | 274° |
| 2026-04-27 14:05 | 7.35897 | 153.28346 | 26508 ft | 418 kts | 275° |
| 2026-04-27 14:06 | 7.36103 | 153.25437 | 26076 ft | 415 kts | 274° |
| 2026-04-27 14:06 | 7.36308 | 153.22548 | 25643 ft | 412 kts | 275° |
| 2026-04-27 14:06 | 7.36511 | 153.19674 | 25222 ft | 410 kts | 275° |
| 2026-04-27 14:06 | 7.36713 | 153.16816 | 24801 ft | 408 kts | 275° |
| 2026-04-27 14:07 | 7.36913 | 153.13976 | 24384 ft | 406 kts | 275° |
| 2026-04-27 14:07 | 7.37113 | 153.11145 | 23978 ft | 404 kts | 275° |
| 2026-04-27 14:07 | 7.37312 | 153.08326 | 23562 ft | 403 kts | 275° |
| 2026-04-27 14:07 | 7.37510 | 153.05514 | 23086 ft | 402 kts | 275° |
| 2026-04-27 14:08 | 7.37707 | 153.02712 | 22642 ft | 400 kts | 275° |
| 2026-04-27 14:08 | 7.37902 | 152.99930 | 22228 ft | 397 kts | 275° |
| 2026-04-27 14:08 | 7.38096 | 152.97168 | 21828 ft | 394 kts | 274° |
| 2026-04-27 14:08 | 7.38289 | 152.94428 | 21426 ft | 391 kts | 275° |
| 2026-04-27 14:09 | 7.38480 | 152.91706 | 21031 ft | 388 kts | 275° |
| 2026-04-27 14:09 | 7.38668 | 152.89004 | 20639 ft | 385 kts | 275° |
| 2026-04-27 14:09 | 7.38857 | 152.86319 | 20247 ft | 383 kts | 275° |
| 2026-04-27 14:09 | 7.39043 | 152.83652 | 19859 ft | 381 kts | 275° |
| 2026-04-27 14:10 | 7.39228 | 152.81003 | 19473 ft | 378 kts | 274° |
| 2026-04-27 14:10 | 7.39413 | 152.78364 | 19090 ft | 376 kts | 275° |
| 2026-04-27 14:10 | 7.39596 | 152.75743 | 18708 ft | 374 kts | 275° |
| 2026-04-27 14:10 | 7.39776 | 152.73170 | 18331 ft | 372 kts | 275° |
| 2026-04-27 14:11 | 7.39956 | 152.70571 | 17918 ft | 370 kts | 275° |
| 2026-04-27 14:11 | 7.40136 | 152.67994 | 17507 ft | 368 kts | 275° |
| 2026-04-27 14:11 | 7.40314 | 152.65434 | 17122 ft | 365 kts | 275° |
| 2026-04-27 14:11 | 7.40490 | 152.62892 | 16746 ft | 362 kts | 275° |
| 2026-04-27 14:12 | 7.40666 | 152.60370 | 16376 ft | 359 kts | 275° |
| 2026-04-27 14:12 | 7.40839 | 152.57869 | 16006 ft | 357 kts | 275° |
| 2026-04-27 14:12 | 7.41012 | 152.55380 | 15639 ft | 355 kts | 275° |
| 2026-04-27 14:12 | 7.41183 | 152.52903 | 15276 ft | 354 kts | 275° |
| 2026-04-27 14:13 | 7.41355 | 152.50436 | 14913 ft | 352 kts | 275° |
| 2026-04-27 14:13 | 7.41524 | 152.47979 | 14546 ft | 351 kts | 275° |
| 2026-04-27 14:13 | 7.41693 | 152.45533 | 14174 ft | 350 kts | 276° |
| 2026-04-27 14:13 | 7.41862 | 152.43093 | 13817 ft | 348 kts | 275° |
| 2026-04-27 14:14 | 7.42030 | 152.40662 | 13423 ft | 347 kts | 275° |
| 2026-04-27 14:14 | 7.42197 | 152.38238 | 13029 ft | 347 kts | 275° |
| 2026-04-27 14:14 | 7.42364 | 152.35820 | 12655 ft | 345 kts | 275° |
| 2026-04-27 14:14 | 7.42145 | 152.33426 | 12232 ft | 345 kts | 253° |
| 2026-04-27 14:15 | 7.41349 | 152.31158 | 11893 ft | 342 kts | 251° |
| 2026-04-27 14:15 | 7.40577 | 152.28904 | 11569 ft | 339 kts | 251° |
| 2026-04-27 14:15 | 7.39818 | 152.26679 | 11217 ft | 333 kts | 251° |
| 2026-04-27 14:15 | 7.39073 | 152.24492 | 10863 ft | 327 kts | 251° |
| 2026-04-27 14:16 | 7.38342 | 152.22345 | 10514 ft | 321 kts | 251° |
| 2026-04-27 14:16 | 7.37626 | 152.20244 | 10188 ft | 313 kts | 250° |
| 2026-04-27 14:16 | 7.36927 | 152.18194 | 9913 ft | 305 kts | 250° |
| 2026-04-27 14:16 | 7.36253 | 152.16215 | 9709 ft | 294 kts | 250° |
| 2026-04-27 14:17 | 7.35595 | 152.14283 | 9378 ft | 290 kts | 250° |
| 2026-04-27 14:17 | 7.34935 | 152.12344 | 9055 ft | 296 kts | 250° |
| 2026-04-27 14:17 | 7.34260 | 152.10368 | 8728 ft | 300 kts | 250° |
| 2026-04-27 14:17 | 7.33580 | 152.08374 | 8408 ft | 301 kts | 250° |
| 2026-04-27 14:18 | 7.32902 | 152.06384 | 8078 ft | 300 kts | 250° |
| 2026-04-27 14:18 | 7.32222 | 152.04396 | 7747 ft | 300 kts | 250° |
| 2026-04-27 14:18 | 7.31547 | 152.02414 | 7439 ft | 298 kts | 250° |
| 2026-04-27 14:18 | 7.30872 | 152.00438 | 7118 ft | 299 kts | 250° |
| 2026-04-27 14:19 | 7.30197 | 151.98460 | 6781 ft | 299 kts | 250° |
| 2026-04-27 14:19 | 7.29521 | 151.96476 | 6458 ft | 299 kts | 250° |
| 2026-04-27 14:19 | 7.28844 | 151.94498 | 6122 ft | 299 kts | 250° |
| 2026-04-27 14:19 | 7.28169 | 151.92519 | 5777 ft | 298 kts | 250° |
| 2026-04-27 14:20 | 7.27493 | 151.90544 | 5443 ft | 297 kts | 250° |
| 2026-04-27 14:20 | 7.26822 | 151.88577 | 5122 ft | 297 kts | 250° |
| 2026-04-27 14:20 | 7.26151 | 151.86614 | 4806 ft | 296 kts | 250° |
| 2026-04-27 14:20 | 7.25496 | 151.84689 | 4528 ft | 293 kts | 250° |
| 2026-04-27 14:21 | 7.24890 | 151.82740 | 4245 ft | 291 kts | 261° |
| 2026-04-27 14:21 | 7.25009 | 151.80742 | 3963 ft | 285 kts | 290° |
| 2026-04-27 14:21 | 7.25990 | 151.79089 | 3802 ft | 269 kts | 316° |
| 2026-04-27 14:21 | 7.27258 | 151.77816 | 3795 ft | 246 kts | 319° |
| 2026-04-27 14:22 | 7.28434 | 151.76646 | 3659 ft | 231 kts | 320° |
| 2026-04-27 14:22 | 7.29548 | 151.75550 | 3494 ft | 218 kts | 320° |
| 2026-04-27 14:22 | 7.30599 | 151.74526 | 3383 ft | 203 kts | 321° |
| 2026-04-27 14:22 | 7.31581 | 151.73573 | 3282 ft | 192 kts | 321° |
| 2026-04-27 14:23 | 7.32595 | 151.72739 | 3088 ft | 184 kts | 340° |
| 2026-04-27 14:23 | 7.33793 | 151.72544 | 2868 ft | 171 kts | 14° |
| 2026-04-27 14:23 | 7.34849 | 151.72986 | 2662 ft | 162 kts | 42° |
| 2026-04-27 14:23 | 7.35702 | 151.73721 | 2485 ft | 162 kts | 46° |
| 2026-04-27 14:24 | 7.36529 | 151.74488 | 2378 ft | 161 kts | 46° |
| 2026-04-27 14:24 | 7.37339 | 151.75266 | 2290 ft | 162 kts | 47° |
| 2026-04-27 14:24 | 7.38143 | 151.76054 | 2087 ft | 161 kts | 47° |
| 2026-04-27 14:24 | 7.38940 | 151.76849 | 1719 ft | 160 kts | 47° |
| 2026-04-27 14:25 | 7.39710 | 151.77628 | 1383 ft | 155 kts | 48° |
| 2026-04-27 14:25 | 7.40483 | 151.78400 | 1161 ft | 159 kts | 47° |
| 2026-04-27 14:25 | 7.41278 | 151.79176 | 1063 ft | 153 kts | 46° |
| 2026-04-27 14:25 | 7.42023 | 151.79927 | 933 ft | 157 kts | 49° |
| 2026-04-27 14:26 | 7.42837 | 151.80741 | 898 ft | 164 kts | 49° |
| 2026-04-27 14:26 | 7.43590 | 151.81506 | 705 ft | 142 kts | 49° |
| 2026-04-27 14:26 | 7.44224 | 151.82212 | 456 ft | 132 kts | 50° |
| 2026-04-27 14:26 | 7.44877 | 151.82916 | 240 ft | 143 kts | 48° |
| 2026-04-27 14:27 | 7.45561 | 151.83642 | 61 ft | 141 kts | 45° |
| 2026-04-27 14:27 | 7.46191 | 151.84294 | 22 ft | 108 kts | 46° |
| 2026-04-27 14:27 | 7.46557 | 151.84673 | 21 ft | 49 kts | 45° |
| 2026-04-27 14:27 | 7.46703 | 151.84848 | 27 ft | 18 kts | 77° |
| 2026-04-27 14:28 | 7.46734 | 151.84890 | 25 ft | 1 kts | 337° |
| 2026-04-27 14:28 | 7.46737 | 151.84876 | 22 ft | 6 kts | 269° |
| 2026-04-27 14:28 | 7.46692 | 151.84815 | 23 ft | 15 kts | 226° |
| 2026-04-27 14:28 | 7.46612 | 151.84732 | 22 ft | 19 kts | 226° |
| 2026-04-27 14:29 | 7.46499 | 151.84614 | 20 ft | 29 kts | 226° |
| 2026-04-27 14:29 | 7.46337 | 151.84446 | 19 ft | 36 kts | 226° |
| 2026-04-27 14:29 | 7.46157 | 151.84260 | 21 ft | 38 kts | 226° |
| 2026-04-27 14:29 | 7.46021 | 151.84118 | 23 ft | 19 kts | 226° |
| 2026-04-27 14:30 | 7.45932 | 151.84031 | 23 ft | 14 kts | 209° |
| 2026-04-27 14:30 | 7.45872 | 151.84056 | 24 ft | 11 kts | 136° |
| 2026-04-27 14:30 | 7.45851 | 151.84109 | 24 ft | 7 kts | 76° |
| 2026-04-27 14:30 | 7.45853 | 151.84146 | 26 ft | 4 kts | 140° |
| 2026-04-27 14:31 | 7.45835 | 151.84145 | 22 ft | 2 kts | 203° |
| 2026-04-27 14:31 | 7.45830 | 151.84141 | 26 ft | 0 kts | 224° |
| 2026-04-27 14:31 | 7.45829 | 151.84140 | 22 ft | 0 kts | 226° |
| 2026-04-27 15:02 | 7.45826 | 151.84137 | 22 ft | 2 kts | 226° |
| 2026-04-27 15:02 | 7.45820 | 151.84119 | 22 ft | 3 kts | 272° |
| 2026-04-27 15:03 | 7.45834 | 151.84094 | 23 ft | 5 kts | 311° |
| 2026-04-27 15:03 | 7.45849 | 151.84079 | 22 ft | 3 kts | 316° |
| 2026-04-27 15:03 | 7.45867 | 151.84060 | 23 ft | 5 kts | 316° |
| 2026-04-27 15:03 | 7.45895 | 151.84031 | 22 ft | 7 kts | 306° |
| 2026-04-27 15:04 | 7.45885 | 151.83978 | 25 ft | 12 kts | 231° |
| 2026-04-27 15:04 | 7.45816 | 151.83906 | 22 ft | 16 kts | 226° |
| 2026-04-27 15:04 | 7.45733 | 151.83820 | 25 ft | 18 kts | 225° |
| 2026-04-27 15:04 | 7.45639 | 151.83761 | 21 ft | 12 kts | 194° |
| 2026-04-27 15:05 | 7.45616 | 151.83719 | 21 ft | 3 kts | 320° |
| 2026-04-27 15:05 | 7.45632 | 151.83720 | 20 ft | 3 kts | 21° |
| 2026-04-27 15:05 | 7.45650 | 151.83733 | 22 ft | 2 kts | 45° |
| 2026-04-27 15:05 | 7.45651 | 151.83734 | 20 ft | 0 kts | 45° |
| 2026-04-27 15:06 | 7.45680 | 151.83764 | 22 ft | 29 kts | 45° |
| 2026-04-27 15:06 | 7.46043 | 151.84140 | 24 ft | 118 kts | 46° |
| 2026-04-27 15:06 | 7.46785 | 151.84912 | 143 ft | 180 kts | 44° |
| 2026-04-27 15:07 | 7.47928 | 151.85680 | 774 ft | 205 kts | 20° |
| 2026-04-27 15:07 | 7.49370 | 151.85879 | 1922 ft | 217 kts | 2° |
| 2026-04-27 15:07 | 7.50902 | 151.85607 | 2730 ft | 243 kts | 338° |
| 2026-04-27 15:07 | 7.52184 | 151.84385 | 3656 ft | 266 kts | 302° |
| 2026-04-27 15:08 | 7.53067 | 151.82680 | 4532 ft | 280 kts | 306° |
| 2026-04-27 15:08 | 7.54196 | 151.81077 | 5465 ft | 287 kts | 310° |
| 2026-04-27 15:08 | 7.55384 | 151.79438 | 6512 ft | 292 kts | 309° |
| 2026-04-27 15:08 | 7.56587 | 151.77763 | 7519 ft | 297 kts | 309° |
| 2026-04-27 15:09 | 7.57801 | 151.76062 | 8521 ft | 301 kts | 308° |
| 2026-04-27 15:09 | 7.59031 | 151.74335 | 9524 ft | 306 kts | 308° |
| 2026-04-27 15:09 | 7.60276 | 151.72579 | 10410 ft | 314 kts | 308° |
| 2026-04-27 15:09 | 7.61583 | 151.70744 | 11018 ft | 330 kts | 308° |
| 2026-04-27 15:10 | 7.62944 | 151.68834 | 11752 ft | 339 kts | 308° |
| 2026-04-27 15:10 | 7.64317 | 151.66898 | 12625 ft | 342 kts | 308° |
| 2026-04-27 15:10 | 7.65706 | 151.64940 | 13460 ft | 345 kts | 307° |
| 2026-04-27 15:10 | 7.67109 | 151.62957 | 14247 ft | 350 kts | 308° |
| 2026-04-27 15:11 | 7.68533 | 151.60945 | 14988 ft | 353 kts | 308° |
| 2026-04-27 15:11 | 7.69959 | 151.58928 | 15769 ft | 354 kts | 307° |
| 2026-04-27 15:11 | 7.71397 | 151.56894 | 16459 ft | 358 kts | 307° |
| 2026-04-27 15:11 | 7.72847 | 151.54844 | 17189 ft | 359 kts | 306° |
| 2026-04-27 15:12 | 7.74302 | 151.52785 | 17908 ft | 361 kts | 306° |
| 2026-04-27 15:12 | 7.75768 | 151.50713 | 18502 ft | 365 kts | 306° |
| 2026-04-27 15:12 | 7.77245 | 151.48624 | 19056 ft | 368 kts | 306° |
| 2026-04-27 15:12 | 7.78747 | 151.46521 | 19575 ft | 371 kts | 309° |
| 2026-04-27 15:13 | 7.80473 | 151.44578 | 20092 ft | 374 kts | 313° |
| 2026-04-27 15:13 | 7.82225 | 151.42627 | 20606 ft | 377 kts | 313° |
| 2026-04-27 15:13 | 7.83979 | 151.40650 | 21121 ft | 380 kts | 313° |
| 2026-04-27 15:13 | 7.85743 | 151.38647 | 21637 ft | 383 kts | 313° |
| 2026-04-27 15:14 | 7.87517 | 151.36626 | 22126 ft | 387 kts | 313° |
| 2026-04-27 15:14 | 7.89305 | 151.34588 | 22617 ft | 389 kts | 313° |
| 2026-04-27 15:14 | 7.91106 | 151.32533 | 23080 ft | 393 kts | 313° |
| 2026-04-27 15:14 | 7.92927 | 151.30455 | 23526 ft | 397 kts | 313° |
| 2026-04-27 15:15 | 7.94761 | 151.28361 | 23927 ft | 400 kts | 313° |
| 2026-04-27 15:15 | 7.96605 | 151.26254 | 24352 ft | 402 kts | 313° |
| 2026-04-27 15:15 | 7.98464 | 151.24133 | 24759 ft | 404 kts | 313° |
| 2026-04-27 15:15 | 8.00331 | 151.22002 | 25166 ft | 406 kts | 313° |
| 2026-04-27 15:16 | 8.02201 | 151.19862 | 25609 ft | 407 kts | 313° |
| 2026-04-27 15:16 | 8.04084 | 151.17710 | 26006 ft | 410 kts | 313° |
| 2026-04-27 15:16 | 8.05978 | 151.15547 | 26414 ft | 413 kts | 312° |
| 2026-04-27 15:16 | 8.07883 | 151.13369 | 26815 ft | 415 kts | 312° |
| 2026-04-27 15:17 | 8.09800 | 151.11180 | 27203 ft | 417 kts | 312° |
| 2026-04-27 15:17 | 8.11726 | 151.08978 | 27576 ft | 420 kts | 312° |
| 2026-04-27 15:17 | 8.13664 | 151.06762 | 27949 ft | 422 kts | 312° |
| 2026-04-27 15:17 | 8.15612 | 151.04533 | 28317 ft | 425 kts | 312° |
| 2026-04-27 15:18 | 8.17573 | 151.02291 | 28692 ft | 427 kts | 312° |
| 2026-04-27 15:18 | 8.19514 | 151.00071 | 29069 ft | 428 kts | 312° |
| 2026-04-27 15:18 | 8.21489 | 150.97811 | 29431 ft | 431 kts | 311° |
| 2026-04-27 15:18 | 8.23477 | 150.95536 | 29759 ft | 433 kts | 311° |
| 2026-04-27 15:19 | 8.25476 | 150.93249 | 30070 ft | 436 kts | 311° |
| 2026-04-27 15:19 | 8.27487 | 150.90946 | 30376 ft | 437 kts | 311° |
| 2026-04-27 15:19 | 8.29503 | 150.88638 | 30649 ft | 440 kts | 311° |
| 2026-04-27 15:19 | 8.30870 | 150.87073 | 30851 ft | 441 kts | 311° |
| 2026-04-27 15:20 | 8.32904 | 150.84744 | 31162 ft | 442 kts | 311° |
| 2026-04-27 15:20 | 8.34942 | 150.82410 | 31433 ft | 444 kts | 311° |
| 2026-04-27 15:20 | 8.36992 | 150.80062 | 31676 ft | 447 kts | 311° |
| 2026-04-27 15:20 | 8.39028 | 150.77730 | 31936 ft | 450 kts | 311° |
| 2026-04-27 15:21 | 8.41100 | 150.75354 | 32198 ft | 452 kts | 311° |
| 2026-04-27 15:21 | 8.43184 | 150.72967 | 32454 ft | 454 kts | 311° |
| 2026-04-27 15:21 | 8.45305 | 150.70536 | 32708 ft | 457 kts | 311° |
| 2026-04-27 15:21 | 8.47386 | 150.68150 | 32959 ft | 459 kts | 311° |
| 2026-04-27 15:22 | 8.49502 | 150.65722 | 33211 ft | 462 kts | 311° |
| 2026-04-27 15:22 | 8.51631 | 150.63280 | 33433 ft | 465 kts | 311° |
| 2026-04-27 15:22 | 8.53772 | 150.60825 | 33671 ft | 467 kts | 311° |
| 2026-04-27 15:22 | 8.55918 | 150.58362 | 33943 ft | 468 kts | 311° |
| 2026-04-27 15:23 | 8.58072 | 150.55890 | 34175 ft | 469 kts | 311° |
| 2026-04-27 15:23 | 8.60229 | 150.53412 | 34463 ft | 468 kts | 311° |
| 2026-04-27 15:23 | 8.62379 | 150.50945 | 34738 ft | 469 kts | 310° |
| 2026-04-27 15:23 | 8.64535 | 150.48469 | 34970 ft | 470 kts | 310° |
| 2026-04-27 15:24 | 8.66696 | 150.45988 | 35204 ft | 471 kts | 310° |
| 2026-04-27 15:24 | 8.68857 | 150.43506 | 35540 ft | 469 kts | 310° |
| 2026-04-27 15:24 | 8.71009 | 150.41033 | 35833 ft | 469 kts | 310° |
| 2026-04-27 15:24 | 8.73162 | 150.38560 | 36088 ft | 469 kts | 310° |
| 2026-04-27 15:25 | 8.75313 | 150.36088 | 36402 ft | 467 kts | 310° |
| 2026-04-27 15:25 | 8.77457 | 150.33622 | 36668 ft | 467 kts | 310° |
| 2026-04-27 15:25 | 8.79601 | 150.31158 | 36925 ft | 467 kts | 310° |
| 2026-04-27 15:25 | 8.81745 | 150.28692 | 37184 ft | 466 kts | 310° |
| 2026-04-27 15:26 | 8.83887 | 150.26227 | 37424 ft | 467 kts | 310° |
| 2026-04-27 15:26 | 8.86030 | 150.23760 | 37606 ft | 468 kts | 310° |
| 2026-04-27 15:26 | 8.88187 | 150.21281 | 37751 ft | 470 kts | 310° |
| 2026-04-27 15:26 | 8.90339 | 150.18803 | 37995 ft | 469 kts | 309° |
| 2026-04-27 15:27 | 8.92496 | 150.16322 | 38221 ft | 469 kts | 310° |
| 2026-04-27 15:27 | 8.94642 | 150.13850 | 38477 ft | 468 kts | 310° |
| 2026-04-27 15:27 | 8.96783 | 150.11384 | 38717 ft | 466 kts | 310° |
| 2026-04-27 15:27 | 8.98922 | 150.08922 | 38888 ft | 465 kts | 310° |
| 2026-04-27 15:28 | 9.01052 | 150.06467 | 39068 ft | 464 kts | 310° |
| 2026-04-27 15:28 | 9.03156 | 150.04042 | 39157 ft | 466 kts | 309° |
| 2026-04-27 15:28 | 9.05300 | 150.01572 | 39262 ft | 467 kts | 309° |
| 2026-04-27 15:28 | 9.07438 | 149.99108 | 39407 ft | 466 kts | 309° |
| 2026-04-27 15:29 | 9.09578 | 149.96641 | 39559 ft | 466 kts | 309° |
| 2026-04-27 15:29 | 9.11714 | 149.94179 | 39715 ft | 465 kts | 310° |
| 2026-04-27 15:29 | 9.13840 | 149.91725 | 39880 ft | 464 kts | 310° |
| 2026-04-27 15:29 | 9.15968 | 149.89269 | 39901 ft | 465 kts | 310° |
| 2026-04-27 15:30 | 9.20227 | 149.84355 | 39893 ft | 460 kts | 310° |
| 2026-04-27 15:30 | 9.24434 | 149.79499 | 39884 ft | 460 kts | 310° |
| 2026-04-27 15:31 | 9.28664 | 149.74615 | 39897 ft | 462 kts | 310° |
| 2026-04-27 15:31 | 9.32870 | 149.69755 | 39886 ft | 458 kts | 310° |
| 2026-04-27 15:32 | 9.37075 | 149.64895 | 39888 ft | 460 kts | 309° |
| 2026-04-27 15:32 | 9.41297 | 149.60015 | 39895 ft | 459 kts | 310° |
| 2026-04-27 15:33 | 9.45487 | 149.55165 | 39885 ft | 457 kts | 309° |
| 2026-04-27 15:33 | 9.49691 | 149.50302 | 39897 ft | 459 kts | 309° |
| 2026-04-27 15:34 | 9.53883 | 149.45450 | 39894 ft | 456 kts | 310° |
| 2026-04-27 15:34 | 9.58063 | 149.40610 | 39895 ft | 457 kts | 310° |
| 2026-04-27 15:35 | 9.62251 | 149.35756 | 39892 ft | 458 kts | 309° |
| 2026-04-27 15:35 | 9.66449 | 149.30892 | 39895 ft | 459 kts | 309° |
| 2026-04-27 15:36 | 9.70619 | 149.26058 | 39898 ft | 458 kts | 310° |
| 2026-04-27 15:36 | 9.74796 | 149.21212 | 39894 ft | 456 kts | 310° |
| 2026-04-27 15:37 | 9.78957 | 149.16382 | 39894 ft | 452 kts | 309° |
| 2026-04-27 15:37 | 9.83089 | 149.11585 | 39896 ft | 451 kts | 309° |
| 2026-04-27 15:38 | 9.87217 | 149.06791 | 39896 ft | 451 kts | 310° |
| 2026-04-27 15:38 | 9.91346 | 149.01993 | 39891 ft | 451 kts | 310° |
| 2026-04-27 15:39 | 9.95463 | 148.97206 | 39892 ft | 450 kts | 310° |
| 2026-04-27 15:39 | 9.99576 | 148.92424 | 39897 ft | 450 kts | 309° |
| 2026-04-27 15:40 | 10.03688 | 148.87642 | 39893 ft | 450 kts | 310° |
| 2026-04-27 15:40 | 10.07798 | 148.82857 | 39897 ft | 450 kts | 309° |
| 2026-04-27 15:41 | 10.11906 | 148.78075 | 39893 ft | 449 kts | 310° |
| 2026-04-27 15:41 | 10.16011 | 148.73291 | 39893 ft | 450 kts | 309° |
| 2026-04-27 15:42 | 10.20126 | 148.68498 | 39896 ft | 451 kts | 309° |
| 2026-04-27 15:42 | 10.24241 | 148.63700 | 39897 ft | 450 kts | 310° |
| 2026-04-27 15:43 | 10.28325 | 148.58937 | 39897 ft | 450 kts | 309° |
| 2026-04-27 15:43 | 10.32436 | 148.54140 | 39900 ft | 450 kts | 309° |
| 2026-04-27 15:44 | 10.36539 | 148.49351 | 39896 ft | 449 kts | 310° |
| 2026-04-27 15:44 | 10.40638 | 148.44563 | 39904 ft | 449 kts | 310° |
| 2026-04-27 15:45 | 10.44727 | 148.39784 | 39900 ft | 447 kts | 310° |
| 2026-04-27 15:45 | 10.48809 | 148.35016 | 39900 ft | 447 kts | 309° |
| 2026-04-27 15:46 | 10.52887 | 148.30246 | 39901 ft | 448 kts | 310° |
| 2026-04-27 15:46 | 10.56972 | 148.25467 | 39903 ft | 447 kts | 309° |
| 2026-04-27 15:47 | 10.61044 | 148.20702 | 39910 ft | 445 kts | 309° |
| 2026-04-27 15:47 | 10.65078 | 148.15981 | 39900 ft | 441 kts | 309° |
| 2026-04-27 15:48 | 10.69098 | 148.11272 | 39896 ft | 442 kts | 309° |
| 2026-04-27 15:49 | 10.75003 | 148.04087 | 39905 ft | 439 kts | 307° |
| 2026-04-27 15:49 | 10.78835 | 147.99224 | 39913 ft | 442 kts | 307° |
| 2026-04-27 15:50 | 10.82689 | 147.94352 | 39904 ft | 442 kts | 307° |
| 2026-04-27 15:50 | 10.86537 | 147.89482 | 39910 ft | 440 kts | 307° |
| 2026-04-27 15:51 | 10.90357 | 147.84647 | 39905 ft | 438 kts | 307° |
| 2026-04-27 15:51 | 10.94176 | 147.79809 | 39907 ft | 438 kts | 307° |
| 2026-04-27 15:52 | 10.97985 | 147.74984 | 39907 ft | 436 kts | 307° |
| 2026-04-27 15:52 | 11.01787 | 147.70163 | 39907 ft | 438 kts | 307° |
| 2026-04-27 15:53 | 11.05578 | 147.65357 | 39913 ft | 438 kts | 307° |
| 2026-04-27 15:53 | 11.09388 | 147.60525 | 39907 ft | 438 kts | 307° |
| 2026-04-27 15:54 | 11.13207 | 147.55676 | 39914 ft | 440 kts | 307° |
| 2026-04-27 15:54 | 11.17024 | 147.50829 | 39907 ft | 438 kts | 307° |
| 2026-04-27 15:55 | 11.20825 | 147.45999 | 39913 ft | 437 kts | 307° |
| 2026-04-27 15:55 | 11.24627 | 147.41166 | 39920 ft | 437 kts | 307° |
| 2026-04-27 15:56 | 11.28423 | 147.36340 | 39913 ft | 437 kts | 307° |
| 2026-04-27 15:56 | 11.32225 | 147.31502 | 39912 ft | 437 kts | 307° |
| 2026-04-27 15:57 | 11.36029 | 147.26660 | 39916 ft | 438 kts | 307° |
| 2026-04-27 15:57 | 11.39829 | 147.21821 | 39910 ft | 437 kts | 307° |
| 2026-04-27 15:58 | 11.43630 | 147.16978 | 39920 ft | 437 kts | 307° |
| 2026-04-27 15:58 | 11.47426 | 147.12138 | 39920 ft | 437 kts | 307° |
| 2026-04-27 15:59 | 11.51216 | 147.07305 | 39913 ft | 436 kts | 307° |
| 2026-04-27 15:59 | 11.55011 | 147.02462 | 39918 ft | 437 kts | 307° |
| 2026-04-27 16:00 | 11.58803 | 146.97623 | 39913 ft | 436 kts | 307° |
| 2026-04-27 16:00 | 11.62564 | 146.92820 | 39921 ft | 437 kts | 307° |
| 2026-04-27 16:01 | 11.66381 | 146.87942 | 39924 ft | 437 kts | 307° |
| 2026-04-27 16:01 | 11.70139 | 146.83139 | 39917 ft | 435 kts | 307° |
| 2026-04-27 16:02 | 11.73905 | 146.78322 | 39923 ft | 434 kts | 307° |
| 2026-04-27 16:02 | 11.77673 | 146.73499 | 39923 ft | 434 kts | 307° |
| 2026-04-27 16:03 | 11.81437 | 146.68680 | 39922 ft | 434 kts | 307° |
| 2026-04-27 16:03 | 11.85202 | 146.63859 | 39922 ft | 434 kts | 307° |
| 2026-04-27 16:04 | 11.88963 | 146.59038 | 39924 ft | 434 kts | 307° |
| 2026-04-27 16:04 | 11.92722 | 146.54218 | 39925 ft | 434 kts | 307° |
| 2026-04-27 16:05 | 11.96479 | 146.49399 | 39925 ft | 433 kts | 307° |
| 2026-04-27 16:05 | 12.00225 | 146.44592 | 39911 ft | 432 kts | 307° |
| 2026-04-27 16:05 | 12.02087 | 146.42200 | 39367 ft | 430 kts | 307° |
| 2026-04-27 16:06 | 12.03970 | 146.39782 | 38338 ft | 441 kts | 307° |
| 2026-04-27 16:06 | 12.05894 | 146.37312 | 37478 ft | 444 kts | 307° |
| 2026-04-27 16:06 | 12.07805 | 146.34855 | 37031 ft | 439 kts | 307° |
| 2026-04-27 16:06 | 12.09693 | 146.32431 | 36600 ft | 433 kts | 308° |
| 2026-04-27 16:07 | 12.11559 | 146.30032 | 36118 ft | 430 kts | 308° |
| 2026-04-27 16:07 | 12.13412 | 146.27650 | 35575 ft | 428 kts | 309° |
| 2026-04-27 16:07 | 12.15261 | 146.25272 | 35035 ft | 426 kts | 309° |
| 2026-04-27 16:07 | 12.17103 | 146.22902 | 34519 ft | 425 kts | 310° |
| 2026-04-27 16:08 | 12.18936 | 146.20543 | 34017 ft | 423 kts | 310° |
| 2026-04-27 16:08 | 12.20766 | 146.18186 | 33455 ft | 423 kts | 310° |
| 2026-04-27 16:08 | 12.22591 | 146.15837 | 32928 ft | 421 kts | 311° |
| 2026-04-27 16:08 | 12.23796 | 146.14285 | 32603 ft | 420 kts | 311° |
| 2026-04-27 16:09 | 12.25606 | 146.11954 | 32120 ft | 417 kts | 311° |
| 2026-04-27 16:09 | 12.29197 | 146.07327 | 31158 ft | 413 kts | 311° |
| 2026-04-27 16:09 | 12.30977 | 146.05032 | 30689 ft | 411 kts | 311° |
| 2026-04-27 16:10 | 12.34516 | 146.00470 | 29727 ft | 407 kts | 312° |
| 2026-04-27 16:10 | 12.38015 | 145.95954 | 28745 ft | 402 kts | 311° |
| 2026-04-27 16:11 | 12.39744 | 145.93723 | 28319 ft | 398 kts | 311° |
| 2026-04-27 16:11 | 12.43155 | 145.89319 | 27471 ft | 392 kts | 311° |
| 2026-04-27 16:12 | 12.46519 | 145.84975 | 26646 ft | 387 kts | 311° |
| 2026-04-27 16:12 | 12.48186 | 145.82822 | 26231 ft | 385 kts | 311° |
| 2026-04-27 16:12 | 12.51489 | 145.78552 | 25430 ft | 381 kts | 311° |
| 2026-04-27 16:13 | 12.53129 | 145.76432 | 25037 ft | 379 kts | 311° |
| 2026-04-27 16:13 | 12.56391 | 145.72213 | 24257 ft | 377 kts | 310° |
| 2026-04-27 16:13 | 12.58015 | 145.70112 | 23869 ft | 376 kts | 310° |
| 2026-04-27 16:14 | 12.61252 | 145.65921 | 23012 ft | 374 kts | 310° |
| 2026-04-27 16:14 | 12.64445 | 145.61790 | 22226 ft | 370 kts | 310° |
| 2026-04-27 16:15 | 12.67609 | 145.57691 | 21474 ft | 365 kts | 310° |
| 2026-04-27 16:15 | 12.70740 | 145.53633 | 20728 ft | 361 kts | 310° |
| 2026-04-27 16:16 | 12.73837 | 145.49617 | 19994 ft | 358 kts | 310° |
| 2026-04-27 16:16 | 12.76909 | 145.45631 | 19270 ft | 355 kts | 310° |
| 2026-04-27 16:17 | 12.79963 | 145.41667 | 18549 ft | 354 kts | 309° |
| 2026-04-27 16:17 | 12.83011 | 145.37712 | 17765 ft | 353 kts | 308° |
| 2026-04-27 16:18 | 12.86038 | 145.33783 | 17021 ft | 349 kts | 309° |
| 2026-04-27 16:18 | 12.89028 | 145.29897 | 16304 ft | 345 kts | 308° |
| 2026-04-27 16:19 | 12.90509 | 145.27971 | 15948 ft | 343 kts | 308° |
| 2026-04-27 16:19 | 12.91984 | 145.26054 | 15596 ft | 341 kts | 308° |
| 2026-04-27 16:20 | 12.96353 | 145.20370 | 14577 ft | 336 kts | 308° |
| 2026-04-27 16:20 | 12.97796 | 145.18493 | 14241 ft | 334 kts | 308° |
| 2026-04-27 16:20 | 13.00669 | 145.14756 | 13519 ft | 333 kts | 308° |
| 2026-04-27 16:21 | 13.02098 | 145.12894 | 13141 ft | 332 kts | 308° |
| 2026-04-27 16:21 | 13.06338 | 145.07373 | 12096 ft | 326 kts | 308° |
| 2026-04-27 16:22 | 13.07736 | 145.05550 | 11750 ft | 324 kts | 308° |
| 2026-04-27 16:22 | 13.10514 | 145.01931 | 11086 ft | 322 kts | 308° |
| 2026-04-27 16:22 | 13.11898 | 145.00127 | 10739 ft | 322 kts | 308° |
| 2026-04-27 16:23 | 13.13279 | 144.98326 | 10402 ft | 321 kts | 308° |
| 2026-04-27 16:23 | 13.16017 | 144.94754 | 9877 ft | 314 kts | 308° |
| 2026-04-27 16:23 | 13.17363 | 144.92999 | 9545 ft | 312 kts | 308° |
| 2026-04-27 16:24 | 13.18703 | 144.91250 | 9179 ft | 312 kts | 308° |
| 2026-04-27 16:24 | 13.21377 | 144.87760 | 8488 ft | 310 kts | 308° |
| 2026-04-27 16:25 | 13.23990 | 144.84347 | 7844 ft | 297 kts | 308° |
| 2026-04-27 16:25 | 13.26472 | 144.81105 | 7226 ft | 286 kts | 308° |
| 2026-04-27 16:26 | 13.28928 | 144.77897 | 6637 ft | 285 kts | 308° |
| 2026-04-27 16:26 | 13.30485 | 144.74257 | 5923 ft | 283 kts | 270° |
| 2026-04-27 16:27 | 13.30551 | 144.70279 | 5370 ft | 278 kts | 282° |
| 2026-04-27 16:27 | 13.32774 | 144.64966 | 4947 ft | 261 kts | 303° |
| 2026-04-27 16:28 | 13.34982 | 144.62180 | 4611 ft | 246 kts | 317° |
| 2026-04-27 16:28 | 13.38041 | 144.61145 | 3886 ft | 231 kts | 14° |
| 2026-04-27 16:29 | 13.41315 | 144.64012 | 3140 ft | 194 kts | 62° |
| 2026-04-27 16:30 | 13.42420 | 144.66370 | 2697 ft | 169 kts | 68° |
| 2026-04-27 16:30 | 13.43319 | 144.68357 | 2305 ft | 141 kts | 67° |
| 2026-04-27 16:31 | 13.44555 | 144.71073 | 1798 ft | 140 kts | 67° |
| 2026-04-27 16:31 | 13.45357 | 144.72836 | 1427 ft | 137 kts | 67° |
| 2026-04-27 16:32 | 13.46143 | 144.74594 | 1008 ft | 136 kts | 65° |
| 2026-04-27 16:32 | 13.46555 | 144.75493 | 897 ft | 141 kts | 67° |
| 2026-04-27 16:33 | 13.47392 | 144.77296 | 525 ft | 136 kts | 67° |
| 2026-04-27 16:33 | 13.47791 | 144.78174 | 343 ft | 136 kts | 68° |
| 2026-04-27 16:33 | 13.48171 | 144.79008 | 279 ft | 119 kts | 65° |
| 2026-04-27 16:33 | 13.48448 | 144.79616 | 282 ft | 73 kts | 65° |
| 2026-04-27 16:34 | 13.48632 | 144.80017 | 292 ft | 40 kts | 64° |
| 2026-04-27 16:34 | 13.48740 | 144.80212 | 293 ft | 28 kts | 50° |
| 2026-04-27 16:34 | 13.48864 | 144.80325 | 296 ft | 18 kts | 32° |
| 2026-04-27 16:34 | 13.48933 | 144.80372 | 297 ft | 7 kts | 34° |
| 2026-04-27 16:35 | 13.48976 | 144.80406 | 298 ft | 9 kts | 41° |
| 2026-04-27 16:35 | 13.49022 | 144.80447 | 298 ft | 6 kts | 17° |
| 2026-04-27 16:35 | 13.49098 | 144.80488 | 300 ft | 1 kts | 341° |
| 2026-04-27 16:36 | 13.49104 | 144.80484 | 298 ft | 2 kts | 330° |
| 2026-04-27 16:36 | 13.49130 | 144.80469 | 302 ft | 6 kts | 331° |
| 2026-04-27 16:36 | 13.49138 | 144.80465 | 298 ft | 0 kts | 332° |